CheckWX is a tool to help pilots better visualize weather data.  It is not intended as a substitute for an official pre-flight weather briefing.

17:37:29 UTC

NFNA METAR
Nausori International Airport
Nausori, Fiji
Current

37 mins ago

NFNA 201700Z 32003KT 9999 SCT020 BKN050 25/24 Q1008
Observed
Feb-20 @ 17:00 UTC
Wind
  • 320° at 3 KTS
Visibility
10,000+ meters
Flight Rules
VFR
Cloud Levels
  • Scattered at 2,000' AGL
  • Broken at 5,000' AGL
Temperature
25°C / 77°F
Dewpoint
24°C / 75°F
Humidity
94%
Altimeter
29.76" Hg
Pressure
1007.92 hPa
Previous

2 hours ago

NFNA 201600Z 25002KT 9999 SCT020 BKN050 25/24 Q1008
Observed
Feb-20 @ 16:00 UTC
Wind
  • 250° at 2 KTS
Visibility
10,000+ meters
Flight Rules
VFR
Cloud Levels
  • Scattered at 2,000' AGL
  • Broken at 5,000' AGL
Temperature
25°C / 77°F
Dewpoint
24°C / 75°F
Humidity
94%
Altimeter
29.76" Hg
Pressure
1007.92 hPa
Previous

3 hours ago

NFNA 201500Z 30002KT 9999 SCT020 BKN050 25/24 Q1008
Observed
Feb-20 @ 15:00 UTC
Wind
  • 300° at 2 KTS
Visibility
10,000+ meters
Flight Rules
VFR
Cloud Levels
  • Scattered at 2,000' AGL
  • Broken at 5,000' AGL
Temperature
25°C / 77°F
Dewpoint
24°C / 75°F
Humidity
94%
Altimeter
29.76" Hg
Pressure
1007.92 hPa